N4JP KSFO-KLAX
Flight info
| Callsign | N4JP |
|---|---|
| Flight time | 1h 2m |
| Altitude | 45000 |
| Route | WESLA5 SUSEY EBAYE BURGL IRNMN2 |
| Aircraft | C25C/M-SDE2E3FGHRWXY/LB1 |
Departure
| Time | 2026-04-20 00:30 |
|---|---|
| Airport | San Francisco International Airport (KSFO) |
Arrival
| Time | 2026-04-20 01:33 |
|---|---|
| Airport | Los Angeles International Airport (KLAX) |
| Time | Latitude | Longitude | Altitude | Speed | Heading |
|---|---|---|---|---|---|
| 2026-04-20 00:15 | 37.62805 | -122.38322 | 10 ft | 0 kts | 113° |
| 2026-04-20 00:25 | 37.62804 | -122.38321 | 10 ft | 1 kts | 127° |
| 2026-04-20 00:25 | 37.62798 | -122.38323 | 10 ft | 3 kts | 212° |
| 2026-04-20 00:25 | 37.62789 | -122.38356 | 11 ft | 4 kts | 255° |
| 2026-04-20 00:26 | 37.62775 | -122.38389 | 11 ft | 6 kts | 232° |
| 2026-04-20 00:26 | 37.62742 | -122.38417 | 11 ft | 6 kts | 211° |
| 2026-04-20 00:26 | 37.62725 | -122.38433 | 11 ft | 0 kts | 223° |
| 2026-04-20 00:27 | 37.62724 | -122.38434 | 11 ft | 0 kts | 222° |
| 2026-04-20 00:27 | 37.62693 | -122.38458 | 11 ft | 9 kts | 202° |
| 2026-04-20 00:27 | 37.62637 | -122.38407 | 11 ft | 14 kts | 118° |
| 2026-04-20 00:27 | 37.62581 | -122.38273 | 10 ft | 19 kts | 118° |
| 2026-04-20 00:28 | 37.62524 | -122.38135 | 12 ft | 17 kts | 118° |
| 2026-04-20 00:28 | 37.62467 | -122.37998 | 13 ft | 18 kts | 118° |
| 2026-04-20 00:28 | 37.62412 | -122.37867 | 15 ft | 16 kts | 118° |
| 2026-04-20 00:28 | 37.62359 | -122.37739 | 14 ft | 17 kts | 117° |
| 2026-04-20 00:29 | 37.62307 | -122.37618 | 12 ft | 12 kts | 118° |
| 2026-04-20 00:29 | 37.62284 | -122.37566 | 12 ft | 10 kts | 121° |
| 2026-04-20 00:29 | 37.62209 | -122.37583 | 14 ft | 15 kts | 236° |
| 2026-04-20 00:29 | 37.62190 | -122.37707 | 14 ft | 32 kts | 297° |
| 2026-04-20 00:30 | 37.62462 | -122.38358 | 33 ft | 133 kts | 306° |
| 2026-04-20 00:30 | 37.62985 | -122.39535 | 770 ft | 178 kts | 293° |
| 2026-04-20 00:30 | 37.63614 | -122.41135 | 1599 ft | 216 kts | 293° |
| 2026-04-20 00:30 | 37.64239 | -122.42806 | 2496 ft | 211 kts | 291° |
| 2026-04-20 00:31 | 37.64898 | -122.44576 | 3001 ft | 237 kts | 292° |
| 2026-04-20 00:31 | 37.65739 | -122.46542 | 3018 ft | 265 kts | 297° |
| 2026-04-20 00:31 | 37.66640 | -122.48558 | 3014 ft | 260 kts | 291° |
| 2026-04-20 00:31 | 37.66888 | -122.50694 | 3227 ft | 238 kts | 262° |
| 2026-04-20 00:32 | 37.66505 | -122.52662 | 3276 ft | 228 kts | 237° |
| 2026-04-20 00:32 | 37.65540 | -122.54210 | 3284 ft | 223 kts | 218° |
| 2026-04-20 00:32 | 37.64199 | -122.55130 | 3333 ft | 219 kts | 197° |
| 2026-04-20 00:32 | 37.62693 | -122.55333 | 3347 ft | 219 kts | 176° |
| 2026-04-20 00:33 | 37.61233 | -122.54804 | 3350 ft | 221 kts | 156° |
| 2026-04-20 00:33 | 37.59814 | -122.53959 | 4219 ft | 221 kts | 158° |
| 2026-04-20 00:33 | 37.58434 | -122.53132 | 5589 ft | 222 kts | 156° |
| 2026-04-20 00:33 | 37.57026 | -122.52281 | 6727 ft | 226 kts | 157° |
| 2026-04-20 00:34 | 37.55588 | -122.51412 | 7799 ft | 231 kts | 158° |
| 2026-04-20 00:34 | 37.54139 | -122.50550 | 8881 ft | 236 kts | 158° |
| 2026-04-20 00:34 | 37.52641 | -122.49653 | 9963 ft | 241 kts | 158° |
| 2026-04-20 00:34 | 37.51142 | -122.48660 | 10969 ft | 248 kts | 148° |
| 2026-04-20 00:35 | 37.49922 | -122.47074 | 11961 ft | 255 kts | 138° |
| 2026-04-20 00:35 | 37.48686 | -122.45456 | 12976 ft | 258 kts | 139° |
| 2026-04-20 00:35 | 37.47454 | -122.43790 | 13969 ft | 262 kts | 139° |
| 2026-04-20 00:35 | 37.46204 | -122.42100 | 14853 ft | 266 kts | 139° |
| 2026-04-20 00:36 | 37.44934 | -122.40387 | 15732 ft | 270 kts | 139° |
| 2026-04-20 00:36 | 37.43639 | -122.38645 | 16588 ft | 275 kts | 139° |
| 2026-04-20 00:36 | 37.42751 | -122.37452 | 17173 ft | 278 kts | 140° |
| 2026-04-20 00:36 | 37.41434 | -122.35684 | 17998 ft | 282 kts | 140° |
| 2026-04-20 00:37 | 37.40083 | -122.33864 | 18758 ft | 287 kts | 140° |
| 2026-04-20 00:37 | 37.38707 | -122.32020 | 19510 ft | 291 kts | 140° |
| 2026-04-20 00:37 | 37.37302 | -122.30133 | 20254 ft | 297 kts | 140° |
| 2026-04-20 00:37 | 37.35882 | -122.28228 | 21043 ft | 301 kts | 140° |
| 2026-04-20 00:38 | 37.34435 | -122.26292 | 21817 ft | 306 kts | 140° |
| 2026-04-20 00:38 | 37.32967 | -122.24320 | 22555 ft | 312 kts | 140° |
| 2026-04-20 00:38 | 37.31466 | -122.22314 | 23308 ft | 317 kts | 140° |
| 2026-04-20 00:38 | 37.29949 | -122.20282 | 23962 ft | 322 kts | 140° |
| 2026-04-20 00:39 | 37.28405 | -122.18216 | 24592 ft | 327 kts | 140° |
| 2026-04-20 00:39 | 37.26857 | -122.16148 | 25236 ft | 331 kts | 140° |
| 2026-04-20 00:39 | 37.25267 | -122.14025 | 25870 ft | 336 kts | 140° |
| 2026-04-20 00:39 | 37.23650 | -122.11870 | 26483 ft | 342 kts | 140° |
| 2026-04-20 00:40 | 37.22012 | -122.09681 | 27079 ft | 347 kts | 140° |
| 2026-04-20 00:40 | 37.20348 | -122.07464 | 27668 ft | 351 kts | 140° |
| 2026-04-20 00:40 | 37.18665 | -122.05221 | 28325 ft | 354 kts | 140° |
| 2026-04-20 00:40 | 37.16976 | -122.02973 | 29065 ft | 354 kts | 140° |
| 2026-04-20 00:41 | 37.15291 | -122.00727 | 29790 ft | 354 kts | 140° |
| 2026-04-20 00:41 | 37.13596 | -121.98476 | 30414 ft | 355 kts | 140° |
| 2026-04-20 00:41 | 37.11901 | -121.96228 | 31002 ft | 356 kts | 140° |
| 2026-04-20 00:41 | 37.10203 | -121.93973 | 31610 ft | 356 kts | 140° |
| 2026-04-20 00:42 | 37.08501 | -121.91715 | 32202 ft | 356 kts | 140° |
| 2026-04-20 00:42 | 37.06798 | -121.89457 | 32760 ft | 357 kts | 141° |
| 2026-04-20 00:42 | 37.05087 | -121.87193 | 33283 ft | 358 kts | 141° |
| 2026-04-20 00:42 | 37.03376 | -121.84931 | 33811 ft | 358 kts | 141° |
| 2026-04-20 00:43 | 37.01660 | -121.82658 | 34271 ft | 359 kts | 141° |
| 2026-04-20 00:43 | 36.99940 | -121.80385 | 34687 ft | 359 kts | 141° |
| 2026-04-20 00:43 | 36.98222 | -121.78115 | 35152 ft | 359 kts | 141° |
| 2026-04-20 00:43 | 36.96507 | -121.75851 | 35592 ft | 359 kts | 141° |
| 2026-04-20 00:44 | 36.94792 | -121.73590 | 36028 ft | 358 kts | 141° |
| 2026-04-20 00:44 | 36.93076 | -121.71328 | 36458 ft | 358 kts | 141° |
| 2026-04-20 00:44 | 36.91384 | -121.69099 | 36882 ft | 358 kts | 141° |
| 2026-04-20 00:44 | 36.89667 | -121.66840 | 37311 ft | 358 kts | 141° |
| 2026-04-20 00:45 | 36.87953 | -121.64585 | 37738 ft | 358 kts | 141° |
| 2026-04-20 00:45 | 36.86236 | -121.62330 | 38173 ft | 358 kts | 141° |
| 2026-04-20 00:45 | 36.84510 | -121.60064 | 38448 ft | 362 kts | 141° |
| 2026-04-20 00:45 | 36.82769 | -121.57782 | 38797 ft | 363 kts | 141° |
| 2026-04-20 00:46 | 36.81027 | -121.55493 | 39143 ft | 363 kts | 141° |
| 2026-04-20 00:46 | 36.79291 | -121.53214 | 39519 ft | 362 kts | 141° |
| 2026-04-20 00:46 | 36.77557 | -121.50944 | 39866 ft | 361 kts | 142° |
| 2026-04-20 00:46 | 36.75826 | -121.48680 | 40242 ft | 360 kts | 142° |
| 2026-04-20 00:47 | 36.74098 | -121.46423 | 40600 ft | 360 kts | 142° |
| 2026-04-20 00:47 | 36.72366 | -121.44158 | 40853 ft | 363 kts | 142° |
| 2026-04-20 00:47 | 36.70602 | -121.41860 | 40918 ft | 372 kts | 142° |
| 2026-04-20 00:48 | 36.66933 | -121.37077 | 40946 ft | 391 kts | 141° |
| 2026-04-20 00:48 | 36.63091 | -121.32068 | 40942 ft | 408 kts | 141° |
| 2026-04-20 00:49 | 36.59114 | -121.26896 | 40941 ft | 422 kts | 141° |
| 2026-04-20 00:49 | 36.54986 | -121.21534 | 40938 ft | 434 kts | 141° |
| 2026-04-20 00:50 | 36.50765 | -121.16063 | 40928 ft | 443 kts | 140° |
| 2026-04-20 00:50 | 36.46467 | -121.10498 | 40931 ft | 449 kts | 140° |
| 2026-04-20 00:51 | 36.42181 | -121.04810 | 40928 ft | 453 kts | 136° |
| 2026-04-20 00:51 | 36.38071 | -120.98877 | 40934 ft | 454 kts | 137° |
| 2026-04-20 00:52 | 36.33934 | -120.92948 | 40938 ft | 455 kts | 137° |
| 2026-04-20 00:52 | 36.29825 | -120.87045 | 40939 ft | 456 kts | 137° |
| 2026-04-20 00:53 | 36.25668 | -120.81097 | 40935 ft | 456 kts | 137° |
| 2026-04-20 00:53 | 36.21505 | -120.75147 | 40941 ft | 457 kts | 137° |
| 2026-04-20 00:54 | 36.17339 | -120.69204 | 40937 ft | 457 kts | 137° |
| 2026-04-20 00:54 | 36.13175 | -120.63274 | 40930 ft | 456 kts | 137° |
| 2026-04-20 00:55 | 36.09006 | -120.57347 | 40928 ft | 457 kts | 137° |
| 2026-04-20 00:55 | 36.04830 | -120.51423 | 40927 ft | 457 kts | 137° |
| 2026-04-20 00:56 | 36.00649 | -120.45499 | 40925 ft | 456 kts | 137° |
| 2026-04-20 00:56 | 35.96478 | -120.39600 | 40924 ft | 456 kts | 137° |
| 2026-04-20 00:57 | 35.92321 | -120.33734 | 40919 ft | 457 kts | 137° |
| 2026-04-20 00:57 | 35.88080 | -120.27912 | 40913 ft | 453 kts | 142° |
| 2026-04-20 00:58 | 35.83153 | -120.23238 | 40911 ft | 442 kts | 155° |
| 2026-04-20 00:58 | 35.77911 | -120.19298 | 40916 ft | 442 kts | 155° |
| 2026-04-20 00:59 | 35.72673 | -120.15337 | 40915 ft | 441 kts | 155° |
| 2026-04-20 00:59 | 35.67426 | -120.11397 | 40916 ft | 442 kts | 155° |
| 2026-04-20 01:00 | 35.62195 | -120.07449 | 40915 ft | 442 kts | 155° |
| 2026-04-20 01:00 | 35.56956 | -120.03493 | 40911 ft | 441 kts | 155° |
| 2026-04-20 01:00 | 35.54324 | -120.01515 | 40568 ft | 447 kts | 155° |
| 2026-04-20 01:01 | 35.51671 | -119.99519 | 40074 ft | 447 kts | 154° |
| 2026-04-20 01:01 | 35.49022 | -119.97520 | 39576 ft | 446 kts | 154° |
| 2026-04-20 01:01 | 35.46379 | -119.95532 | 39080 ft | 446 kts | 154° |
| 2026-04-20 01:01 | 35.43763 | -119.93571 | 38579 ft | 446 kts | 154° |
| 2026-04-20 01:02 | 35.41120 | -119.91588 | 38021 ft | 445 kts | 154° |
| 2026-04-20 01:02 | 35.38491 | -119.89614 | 37518 ft | 442 kts | 154° |
| 2026-04-20 01:02 | 35.35870 | -119.87650 | 37023 ft | 440 kts | 153° |
| 2026-04-20 01:02 | 35.33253 | -119.85691 | 36530 ft | 441 kts | 153° |
| 2026-04-20 01:03 | 35.30631 | -119.83732 | 36030 ft | 443 kts | 153° |
| 2026-04-20 01:03 | 35.28048 | -119.81655 | 35534 ft | 448 kts | 147° |
| 2026-04-20 01:03 | 35.25581 | -119.79306 | 35032 ft | 452 kts | 146° |
| 2026-04-20 01:03 | 35.23063 | -119.76969 | 34517 ft | 456 kts | 147° |
| 2026-04-20 01:04 | 35.20521 | -119.74615 | 34003 ft | 460 kts | 146° |
| 2026-04-20 01:04 | 35.17975 | -119.72228 | 33446 ft | 463 kts | 146° |
| 2026-04-20 01:04 | 35.15414 | -119.69829 | 32918 ft | 464 kts | 146° |
| 2026-04-20 01:04 | 35.12844 | -119.67431 | 32397 ft | 465 kts | 146° |
| 2026-04-20 01:05 | 35.10274 | -119.65045 | 31873 ft | 464 kts | 146° |
| 2026-04-20 01:05 | 35.07712 | -119.62658 | 31352 ft | 460 kts | 146° |
| 2026-04-20 01:05 | 35.05179 | -119.60298 | 30836 ft | 457 kts | 146° |
| 2026-04-20 01:05 | 35.02690 | -119.57986 | 30330 ft | 454 kts | 146° |
| 2026-04-20 01:06 | 35.00187 | -119.55662 | 29806 ft | 451 kts | 146° |
| 2026-04-20 01:06 | 34.97695 | -119.53353 | 29271 ft | 447 kts | 146° |
| 2026-04-20 01:06 | 34.95230 | -119.51063 | 28774 ft | 444 kts | 145° |
| 2026-04-20 01:06 | 34.92781 | -119.48796 | 28274 ft | 441 kts | 145° |
| 2026-04-20 01:07 | 34.90342 | -119.46540 | 27777 ft | 438 kts | 146° |
| 2026-04-20 01:07 | 34.87884 | -119.44342 | 27153 ft | 439 kts | 147° |
| 2026-04-20 01:07 | 34.85415 | -119.42170 | 26656 ft | 436 kts | 146° |
| 2026-04-20 01:07 | 34.82976 | -119.39993 | 26174 ft | 434 kts | 146° |
| 2026-04-20 01:08 | 34.80563 | -119.37812 | 25695 ft | 430 kts | 146° |
| 2026-04-20 01:08 | 34.78155 | -119.35660 | 25216 ft | 428 kts | 146° |
| 2026-04-20 01:08 | 34.75768 | -119.33533 | 24748 ft | 422 kts | 146° |
| 2026-04-20 01:08 | 34.73409 | -119.31439 | 24279 ft | 417 kts | 146° |
| 2026-04-20 01:09 | 34.71070 | -119.29401 | 23824 ft | 411 kts | 147° |
| 2026-04-20 01:09 | 34.68755 | -119.27392 | 23350 ft | 407 kts | 147° |
| 2026-04-20 01:09 | 34.66472 | -119.25398 | 22883 ft | 401 kts | 146° |
| 2026-04-20 01:09 | 34.64219 | -119.23425 | 22441 ft | 396 kts | 147° |
| 2026-04-20 01:10 | 34.62015 | -119.21523 | 22004 ft | 392 kts | 147° |
| 2026-04-20 01:10 | 34.57607 | -119.17738 | 21146 ft | 385 kts | 147° |
| 2026-04-20 01:10 | 34.55436 | -119.15860 | 20725 ft | 383 kts | 147° |
| 2026-04-20 01:11 | 34.53291 | -119.13958 | 20301 ft | 380 kts | 146° |
| 2026-04-20 01:11 | 34.51177 | -119.12063 | 19868 ft | 375 kts | 146° |
| 2026-04-20 01:11 | 34.49082 | -119.10203 | 19465 ft | 371 kts | 146° |
| 2026-04-20 01:11 | 34.46997 | -119.08371 | 19055 ft | 367 kts | 146° |
| 2026-04-20 01:12 | 34.44944 | -119.06556 | 18643 ft | 364 kts | 146° |
| 2026-04-20 01:12 | 34.42901 | -119.04757 | 18236 ft | 360 kts | 147° |
| 2026-04-20 01:12 | 34.40872 | -119.03005 | 17807 ft | 356 kts | 147° |
| 2026-04-20 01:12 | 34.38871 | -119.01281 | 17439 ft | 347 kts | 147° |
| 2026-04-20 01:13 | 34.36929 | -118.99602 | 17060 ft | 338 kts | 147° |
| 2026-04-20 01:13 | 34.35042 | -118.97961 | 16692 ft | 330 kts | 147° |
| 2026-04-20 01:13 | 34.33227 | -118.96298 | 16326 ft | 325 kts | 143° |
| 2026-04-20 01:13 | 34.31455 | -118.94682 | 15965 ft | 313 kts | 147° |
| 2026-04-20 01:14 | 34.29735 | -118.93187 | 15630 ft | 303 kts | 146° |
| 2026-04-20 01:14 | 34.28066 | -118.91683 | 15299 ft | 296 kts | 146° |
| 2026-04-20 01:14 | 34.26441 | -118.90194 | 14973 ft | 292 kts | 145° |
| 2026-04-20 01:14 | 34.24794 | -118.88699 | 14648 ft | 300 kts | 146° |
| 2026-04-20 01:15 | 34.23116 | -118.87156 | 14315 ft | 304 kts | 144° |
| 2026-04-20 01:15 | 34.21442 | -118.85614 | 13979 ft | 305 kts | 145° |
| 2026-04-20 01:15 | 34.19760 | -118.84063 | 13627 ft | 303 kts | 145° |
| 2026-04-20 01:15 | 34.18084 | -118.82531 | 13275 ft | 301 kts | 145° |
| 2026-04-20 01:16 | 34.16430 | -118.80996 | 12935 ft | 299 kts | 143° |
| 2026-04-20 01:16 | 34.14904 | -118.79301 | 12600 ft | 297 kts | 140° |
| 2026-04-20 01:16 | 34.13366 | -118.77649 | 12267 ft | 294 kts | 141° |
| 2026-04-20 01:16 | 34.11842 | -118.76009 | 11936 ft | 293 kts | 140° |
| 2026-04-20 01:17 | 34.10329 | -118.74370 | 11618 ft | 291 kts | 140° |
| 2026-04-20 01:17 | 34.08833 | -118.72735 | 11294 ft | 288 kts | 140° |
| 2026-04-20 01:17 | 34.07373 | -118.71147 | 10994 ft | 278 kts | 140° |
| 2026-04-20 01:17 | 34.05966 | -118.69622 | 10688 ft | 269 kts | 140° |
| 2026-04-20 01:18 | 34.04584 | -118.68120 | 10399 ft | 266 kts | 140° |
| 2026-04-20 01:18 | 34.03349 | -118.66469 | 10101 ft | 268 kts | 122° |
| 2026-04-20 01:18 | 34.02760 | -118.64333 | 9804 ft | 272 kts | 102° |
| 2026-04-20 01:18 | 34.02537 | -118.62104 | 9496 ft | 271 kts | 99° |
| 2026-04-20 01:19 | 34.02349 | -118.59852 | 9198 ft | 269 kts | 98° |
| 2026-04-20 01:19 | 34.02146 | -118.57614 | 8902 ft | 268 kts | 99° |
| 2026-04-20 01:19 | 34.01934 | -118.55387 | 8604 ft | 267 kts | 99° |
| 2026-04-20 01:19 | 34.01719 | -118.53174 | 8312 ft | 266 kts | 99° |
| 2026-04-20 01:20 | 34.01516 | -118.50972 | 8015 ft | 260 kts | 99° |
| 2026-04-20 01:20 | 34.01320 | -118.48884 | 7737 ft | 243 kts | 99° |
| 2026-04-20 01:20 | 34.01135 | -118.46915 | 7471 ft | 229 kts | 99° |
| 2026-04-20 01:20 | 34.01116 | -118.45014 | 7216 ft | 233 kts | 82° |
| 2026-04-20 01:21 | 34.01471 | -118.43071 | 6965 ft | 240 kts | 81° |
| 2026-04-20 01:21 | 34.01809 | -118.41122 | 6706 ft | 242 kts | 81° |
| 2026-04-20 01:21 | 34.02156 | -118.39111 | 6380 ft | 244 kts | 81° |
| 2026-04-20 01:21 | 34.02498 | -118.37127 | 6005 ft | 240 kts | 81° |
| 2026-04-20 01:22 | 34.02787 | -118.35169 | 5622 ft | 228 kts | 87° |
| 2026-04-20 01:22 | 34.02950 | -118.33325 | 5253 ft | 222 kts | 85° |
| 2026-04-20 01:22 | 34.03158 | -118.31483 | 4880 ft | 221 kts | 85° |
| 2026-04-20 01:22 | 34.03352 | -118.29656 | 4507 ft | 219 kts | 86° |
| 2026-04-20 01:23 | 34.03535 | -118.27833 | 4133 ft | 218 kts | 85° |
| 2026-04-20 01:23 | 34.03729 | -118.26020 | 3764 ft | 220 kts | 84° |
| 2026-04-20 01:23 | 34.03943 | -118.24205 | 3639 ft | 214 kts | 85° |
| 2026-04-20 01:23 | 34.04152 | -118.22461 | 3598 ft | 206 kts | 85° |
| 2026-04-20 01:24 | 34.04351 | -118.20784 | 3574 ft | 198 kts | 84° |
| 2026-04-20 01:24 | 34.04540 | -118.19171 | 3578 ft | 191 kts | 83° |
| 2026-04-20 01:24 | 34.04727 | -118.17580 | 3577 ft | 194 kts | 84° |
| 2026-04-20 01:24 | 34.04913 | -118.15925 | 3580 ft | 206 kts | 85° |
| 2026-04-20 01:25 | 34.05110 | -118.14161 | 3590 ft | 215 kts | 84° |
| 2026-04-20 01:25 | 34.05238 | -118.12969 | 3595 ft | 218 kts | 84° |
| 2026-04-20 01:25 | 34.05440 | -118.11134 | 3595 ft | 223 kts | 84° |
| 2026-04-20 01:25 | 34.05638 | -118.09276 | 3598 ft | 225 kts | 84° |
| 2026-04-20 01:26 | 34.05732 | -118.07400 | 3589 ft | 224 kts | 102° |
| 2026-04-20 01:26 | 34.04913 | -118.05862 | 3582 ft | 223 kts | 144° |
| 2026-04-20 01:26 | 34.03432 | -118.05394 | 3586 ft | 228 kts | 185° |
| 2026-04-20 01:26 | 34.02011 | -118.06230 | 3581 ft | 234 kts | 221° |
| 2026-04-20 01:27 | 34.00954 | -118.07720 | 3593 ft | 234 kts | 230° |
| 2026-04-20 01:27 | 33.99962 | -118.09279 | 3598 ft | 234 kts | 231° |
| 2026-04-20 01:27 | 33.98992 | -118.10854 | 3591 ft | 235 kts | 231° |
| 2026-04-20 01:27 | 33.98023 | -118.12446 | 3596 ft | 235 kts | 232° |
| 2026-04-20 01:28 | 33.97053 | -118.14028 | 3591 ft | 235 kts | 231° |
| 2026-04-20 01:28 | 33.96178 | -118.15686 | 3589 ft | 237 kts | 246° |
| 2026-04-20 01:28 | 33.95815 | -118.17609 | 3448 ft | 235 kts | 261° |
| 2026-04-20 01:28 | 33.95628 | -118.19565 | 3162 ft | 234 kts | 262° |
| 2026-04-20 01:29 | 33.95444 | -118.21505 | 2853 ft | 229 kts | 261° |
| 2026-04-20 01:29 | 33.95259 | -118.23366 | 2558 ft | 218 kts | 261° |
| 2026-04-20 01:29 | 33.95081 | -118.25115 | 2277 ft | 209 kts | 262° |
| 2026-04-20 01:29 | 33.94912 | -118.26799 | 2024 ft | 192 kts | 262° |
| 2026-04-20 01:30 | 33.94748 | -118.28354 | 1773 ft | 183 kts | 262° |
| 2026-04-20 01:30 | 33.94595 | -118.29847 | 1525 ft | 176 kts | 262° |
| 2026-04-20 01:30 | 33.94447 | -118.31311 | 1288 ft | 176 kts | 262° |
| 2026-04-20 01:30 | 33.94311 | -118.32655 | 1060 ft | 147 kts | 263° |
| 2026-04-20 01:31 | 33.94206 | -118.33696 | 874 ft | 108 kts | 263° |
| 2026-04-20 01:31 | 33.94129 | -118.34549 | 731 ft | 107 kts | 266° |
| 2026-04-20 01:31 | 33.94029 | -118.35493 | 707 ft | 119 kts | 262° |
| 2026-04-20 01:31 | 33.93933 | -118.36405 | 494 ft | 106 kts | 262° |
| 2026-04-20 01:32 | 33.93844 | -118.37282 | 332 ft | 105 kts | 263° |
| 2026-04-20 01:32 | 33.93746 | -118.38159 | 188 ft | 105 kts | 263° |
| 2026-04-20 01:32 | 33.93664 | -118.38986 | 120 ft | 89 kts | 262° |
| 2026-04-20 01:32 | 33.93603 | -118.39596 | 119 ft | 54 kts | 263° |
| 2026-04-20 01:33 | 33.93558 | -118.39985 | 119 ft | 42 kts | 257° |
| 2026-04-20 01:33 | 33.93470 | -118.40206 | 118 ft | 14 kts | 198° |
| 2026-04-20 01:33 | 33.93423 | -118.40132 | 119 ft | 13 kts | 88° |
| 2026-04-20 01:33 | 33.93434 | -118.40017 | 119 ft | 15 kts | 83° |
| 2026-04-20 01:34 | 33.93448 | -118.39883 | 119 ft | 17 kts | 83° |
| 2026-04-20 01:34 | 33.93464 | -118.39734 | 119 ft | 18 kts | 81° |
| 2026-04-20 01:34 | 33.93480 | -118.39577 | 118 ft | 19 kts | 83° |
| 2026-04-20 01:34 | 33.93494 | -118.39427 | 118 ft | 12 kts | 85° |
| 2026-04-20 01:35 | 33.93447 | -118.39394 | 119 ft | 9 kts | 217° |
| 2026-04-20 01:35 | 33.93427 | -118.39464 | 119 ft | 9 kts | 249° |
| 2026-04-20 01:35 | 33.93390 | -118.39514 | 119 ft | 6 kts | 247° |